Terminal Aerodrome Forecast
Issued by NWS Jackson, KY

Home | Current Version | Previous Version | Text Only | Print | Product List | Glossary On
Versions: 1 2 3 4 5 6 7 8 9 10 11 12 13 14 15
537
FTUS43 KJKL 061120
TAFLOZ
TAF
KLOZ 061120Z 0612/0712 34005KT 4SM BR SCT100
     FM061300 34005KT P6SM SCT100
     FM061500 35009KT P6SM SCT250
     FM070200 VRB05KT P6SM SCT250=

USA.gov is the U.S. government's official web portal to all federal, state and local government web resources and services.